createdAt,value
2023-04-19T00:00:10.347Z,47.76
2023-04-19T00:02:38.343Z,48.63
2023-04-19T00:05:06.468Z,48.97
2023-04-19T00:07:33.961Z,48.63
2023-04-19T00:10:01.653Z,48.77
2023-04-19T00:12:29.125Z,48.86
2023-04-19T00:14:56.545Z,48.89
2023-04-19T00:17:24.262Z,48.10
2023-04-19T00:19:52.200Z,47.94
2023-04-19T00:22:19.572Z,48.30
2023-04-19T00:24:47.254Z,48.48
2023-04-19T00:27:14.627Z,48.29
2023-04-19T00:29:42.671Z,48.43
2023-04-19T00:32:11.154Z,48.71
2023-04-19T00:34:38.578Z,49.56
2023-04-19T00:37:06.043Z,49.43
2023-04-19T00:39:33.735Z,48.52
2023-04-19T00:42:01.392Z,49.11
2023-04-19T00:44:28.952Z,48.98
2023-04-19T00:46:57.333Z,47.92
2023-04-19T00:49:24.944Z,48.01
2023-04-19T00:51:52.420Z,46.23
2023-04-19T00:54:20.402Z,46.47
2023-04-19T00:56:49.770Z,48.01
2023-04-19T00:59:18.793Z,46.50
2023-04-19T01:01:46.592Z,46.93
2023-04-19T01:04:14.634Z,46.63
2023-04-19T01:06:42.575Z,48.55
2023-04-19T01:09:11.426Z,48.98
2023-04-19T01:11:43.246Z,48.75
2023-04-19T01:14:11.295Z,48.81
2023-04-19T01:16:39.308Z,49.15
2023-04-19T01:19:06.776Z,49.16
2023-04-19T01:21:38.717Z,49.78
2023-04-19T01:24:07.028Z,49.40
2023-04-19T01:26:34.664Z,49.20
2023-04-19T01:29:03.364Z,47.51
2023-04-19T01:31:30.766Z,47.78
2023-04-19T01:33:58.505Z,47.60
2023-04-19T01:36:26.133Z,48.22
2023-04-19T01:38:53.564Z,50.00
2023-04-19T01:41:22.692Z,48.90
2023-04-19T01:43:51.203Z,50.65
2023-04-19T01:46:18.590Z,50.30
2023-04-19T01:48:46.233Z,49.23
2023-04-19T01:51:13.621Z,50.50
2023-04-19T01:53:40.992Z,50.35
2023-04-19T01:56:08.638Z,50.89
2023-04-19T01:58:37.637Z,50.96
2023-04-19T02:01:05.126Z,50.44
2023-04-19T02:03:33.087Z,50.49
2023-04-19T02:06:00.576Z,50.68
2023-04-19T02:08:28.024Z,50.52
2023-04-19T02:10:55.688Z,51.53
2023-04-19T02:13:23.092Z,51.77
2023-04-19T02:15:50.579Z,51.33
2023-04-19T02:18:18.447Z,51.99
2023-04-19T02:20:46.007Z,51.96
2023-04-19T02:23:13.433Z,51.17
2023-04-19T02:25:41.123Z,52.88
2023-04-19T02:28:08.759Z,52.66
2023-04-19T02:30:37.219Z,53.42
2023-04-19T02:33:04.628Z,52.46
2023-04-19T02:35:34.726Z,53.32
2023-04-19T02:38:03.928Z,54.07
2023-04-19T02:40:31.852Z,54.08
2023-04-19T02:42:59.471Z,53.70
2023-04-19T02:45:26.871Z,53.75
2023-04-19T02:47:55.779Z,53.80
2023-04-19T02:50:23.685Z,53.28
2023-04-19T02:52:51.290Z,53.49
2023-04-19T02:55:19.550Z,52.77
2023-04-19T02:57:47.796Z,52.97
2023-04-19T03:00:16.063Z,51.85
2023-04-19T03:02:44.768Z,52.97
2023-04-19T03:05:12.419Z,51.67
2023-04-19T03:07:39.861Z,53.02
2023-04-19T03:10:08.444Z,53.45
2023-04-19T03:12:35.934Z,53.28
2023-04-19T03:15:03.734Z,54.26
2023-04-19T03:17:31.432Z,52.70
2023-04-19T03:19:59.081Z,52.02
2023-04-19T03:22:26.936Z,53.84
2023-04-19T03:24:55.673Z,52.66
2023-04-19T03:27:23.202Z,52.66
2023-04-19T03:29:51.230Z,52.77
2023-04-19T03:32:19.080Z,53.46
2023-04-19T03:34:46.436Z,54.00
2023-04-19T03:37:16.210Z,54.49
2023-04-19T03:39:43.856Z,54.04
2023-04-19T03:42:14.089Z,53.54
2023-04-19T03:44:42.480Z,53.75
2023-04-19T03:47:10.421Z,54.09
2023-04-19T03:49:38.836Z,53.74
2023-04-19T03:52:06.806Z,54.76
2023-04-19T03:54:34.580Z,54.49
2023-04-19T03:57:02.384Z,54.53
2023-04-19T03:59:29.818Z,54.11
2023-04-19T04:01:59.301Z,54.76
2023-04-19T04:04:27.371Z,54.64
2023-04-19T04:06:55.844Z,54.11
2023-04-19T04:09:23.306Z,54.52
2023-04-19T04:11:51.252Z,54.71
2023-04-19T04:14:18.575Z,54.77
2023-04-19T04:16:46.932Z,55.14
2023-04-19T04:19:15.697Z,54.83
2023-04-19T04:21:44.185Z,55.32
2023-04-19T04:24:13.304Z,55.21
2023-04-19T04:26:42.366Z,54.79
2023-04-19T04:29:10.531Z,55.69
2023-04-19T04:31:40.192Z,55.81
2023-04-19T04:34:09.357Z,55.53
2023-04-19T04:36:38.535Z,55.82
2023-04-19T04:39:10.384Z,55.23
2023-04-19T04:41:41.191Z,53.29
2023-04-19T04:44:23.046Z,54.41
2023-04-19T04:46:51.059Z,53.48
2023-04-19T04:49:19.160Z,51.60
2023-04-19T04:51:47.440Z,51.34
2023-04-19T04:54:15.604Z,51.27
2023-04-19T04:56:43.936Z,51.52
2023-04-19T04:59:12.404Z,51.51
2023-04-19T05:01:40.437Z,52.37
2023-04-19T05:04:07.873Z,51.12
2023-04-19T05:06:35.404Z,52.64
2023-04-19T05:09:04.049Z,51.64
2023-04-19T05:11:31.920Z,52.46
2023-04-19T05:13:59.418Z,51.92
2023-04-19T05:16:27.833Z,52.52
2023-04-19T05:18:55.553Z,51.35
2023-04-19T05:21:26.809Z,49.54
2023-04-19T05:23:54.846Z,49.60
2023-04-19T05:26:23.139Z,49.97
2023-04-19T05:28:50.883Z,49.91
2023-04-19T05:31:21.027Z,51.06
2023-04-19T06:22:46.984Z,48.71
2023-04-19T06:25:15.127Z,48.35
2023-04-19T06:27:42.492Z,48.14
2023-04-19T06:30:09.970Z,47.97
2023-04-19T06:32:37.726Z,46.66
2023-04-19T06:35:06.496Z,44.98
2023-04-19T06:37:34.268Z,44.64
2023-04-19T06:40:02.257Z,45.89
2023-04-19T06:42:29.620Z,43.92
2023-04-19T06:44:59.627Z,46.04
2023-04-19T06:47:27.471Z,45.61
2023-04-19T06:49:54.872Z,45.14
2023-04-19T06:52:22.338Z,43.71
2023-04-19T06:54:50.809Z,42.66
2023-04-19T06:57:18.822Z,43.29
2023-04-19T06:59:46.277Z,43.53
2023-04-19T07:02:13.979Z,42.06
2023-04-19T07:04:41.508Z,42.49
2023-04-19T07:07:08.997Z,41.87
2023-04-19T07:09:36.699Z,41.36
2023-04-19T07:12:04.082Z,40.04
2023-04-19T07:14:31.445Z,42.25
2023-04-19T07:16:59.047Z,41.89
2023-04-19T07:19:26.478Z,41.92
2023-04-19T07:21:53.868Z,42.99
2023-04-19T07:24:21.742Z,43.18
2023-04-19T07:26:49.210Z,44.15
2023-04-19T07:29:16.627Z,43.89
2023-04-19T07:31:44.292Z,44.89
2023-04-19T07:34:11.674Z,43.44
2023-04-19T07:36:39.137Z,44.92
2023-04-19T07:39:06.747Z,44.42
2023-04-19T07:41:35.870Z,44.75
2023-04-19T07:44:03.550Z,43.57
2023-04-19T07:46:31.300Z,44.06
2023-04-19T07:48:58.642Z,47.30
2023-04-19T07:51:26.510Z,47.64
2023-04-19T07:53:54.185Z,45.26
2023-04-19T07:56:22.454Z,44.29
2023-04-19T07:59:04.218Z,44.83
2023-04-19T08:01:35.058Z,43.72
2023-04-19T08:04:03.148Z,44.07
2023-04-19T08:06:30.922Z,43.55
2023-04-19T08:08:58.271Z,42.50
2023-04-19T08:11:25.938Z,42.92
2023-04-19T08:14:04.532Z,40.77
2023-04-19T08:19:10.815Z,41.04
2023-04-19T08:21:41.582Z,39.08
2023-04-19T08:24:09.587Z,38.65
2023-04-19T08:26:39.004Z,38.18
2023-04-19T08:29:06.387Z,38.75
2023-04-19T08:31:34.039Z,39.75
2023-04-19T08:34:02.745Z,38.81
2023-04-19T08:36:37.701Z,39.43
2023-04-19T08:39:20.905Z,39.64
2023-04-19T08:42:06.882Z,39.82
2023-04-19T08:44:49.240Z,39.18
2023-04-19T08:47:33.625Z,39.15
2023-04-19T08:52:39.306Z,39.31
2023-04-19T08:55:12.956Z,40.67
2023-04-19T08:57:40.365Z,40.39
2023-04-19T09:00:10.586Z,41.77
2023-04-19T09:03:05.246Z,42.63
2023-04-19T09:05:32.954Z,42.86
2023-04-19T09:08:23.626Z,43.65
2023-04-19T09:10:54.477Z,44.69
2023-04-19T09:13:22.426Z,45.08
2023-04-19T09:15:51.371Z,44.18
2023-04-19T09:18:19.603Z,43.51
2023-04-19T09:20:47.547Z,42.77
2023-04-19T09:23:16.876Z,43.95
2023-04-19T09:28:32.116Z,43.61
2023-04-19T09:31:33.190Z,44.31
2023-04-19T09:34:19.366Z,43.18
2023-04-19T09:36:47.120Z,42.86
2023-04-19T09:39:15.545Z,43.61
2023-04-19T09:41:53.501Z,43.62
2023-04-19T09:46:53.920Z,43.41
2023-04-19T09:49:41.734Z,42.96
2023-04-19T09:52:14.770Z,43.20
2023-04-19T09:54:43.120Z,43.08
2023-04-19T09:57:10.701Z,43.38
2023-04-19T09:59:38.059Z,43.49
2023-04-19T10:02:06.696Z,42.99
2023-04-19T10:04:56.932Z,43.10
2023-04-19T10:07:30.178Z,43.91
2023-04-19T10:10:11.726Z,43.63
2023-04-19T10:13:07.391Z,43.12
2023-04-19T10:18:08.386Z,42.79
2023-04-19T10:20:47.151Z,43.79
2023-04-19T10:23:15.039Z,44.97
2023-04-19T10:25:46.286Z,44.82
2023-04-19T10:28:15.708Z,45.39
2023-04-19T10:31:01.847Z,45.20
2023-04-19T10:33:36.865Z,45.22
2023-04-19T10:36:07.414Z,45.59
2023-04-19T10:38:55.540Z,44.02
2023-04-19T10:41:23.385Z,44.57
2023-04-19T10:43:56.718Z,43.05
2023-04-19T10:46:29.135Z,44.21
2023-04-19T10:49:00.976Z,44.18
2023-04-19T10:51:33.151Z,45.42
2023-04-19T10:54:02.100Z,43.66
2023-04-19T10:56:33.032Z,44.78
2023-04-19T10:59:00.400Z,43.80
2023-04-19T11:01:40.411Z,43.50
2023-04-19T11:04:18.577Z,43.32
2023-04-19T11:06:54.821Z,39.52
2023-04-19T11:09:23.776Z,42.76
2023-04-19T11:11:52.274Z,41.16
2023-04-19T11:14:21.373Z,40.28
2023-04-19T11:16:49.200Z,40.52
2023-04-19T12:04:46.442Z,47.02
2023-04-19T12:07:14.225Z,46.85
2023-04-19T12:09:41.587Z,47.92
2023-04-19T12:12:08.939Z,47.56
2023-04-19T12:14:36.545Z,47.22
2023-04-19T12:17:13.705Z,48.01
2023-04-19T12:19:46.889Z,47.27
2023-04-19T12:22:16.808Z,47.63
2023-04-19T12:24:44.523Z,46.99
2023-04-19T12:27:11.951Z,46.69
2023-04-19T12:29:39.578Z,45.65
2023-04-19T12:32:07.354Z,45.57
2023-04-19T12:34:34.788Z,45.14
2023-04-19T12:37:03.838Z,46.21
2023-04-19T12:39:31.549Z,46.11
2023-04-19T12:41:58.960Z,44.77
2023-04-19T12:44:26.351Z,44.16
2023-04-19T12:46:57.457Z,44.55
2023-04-19T12:49:25.168Z,43.87
2023-04-19T12:51:53.415Z,42.74
2023-04-19T12:54:22.370Z,43.67
2023-04-19T12:56:49.968Z,42.13
2023-04-19T12:59:17.733Z,42.52
2023-04-19T13:01:45.638Z,41.78
2023-04-19T13:04:13.321Z,41.56
2023-04-19T13:06:41.013Z,42.56
2023-04-19T13:09:14.241Z,42.51
2023-04-19T13:11:42.220Z,40.69
2023-04-19T13:14:09.896Z,40.74
2023-04-19T13:16:37.279Z,41.66
2023-04-19T13:19:05.274Z,41.49
2023-04-19T13:21:32.878Z,45.31
2023-04-19T13:24:00.283Z,47.31
2023-04-19T13:26:27.771Z,47.96
2023-04-19T13:28:56.362Z,46.98
2023-04-19T13:31:25.429Z,46.54
2023-04-19T13:33:53.347Z,47.76
2023-04-19T13:36:21.291Z,47.27
2023-04-19T13:38:48.736Z,48.62
2023-04-19T13:41:16.097Z,47.70
2023-04-19T13:43:43.812Z,48.32
2023-04-19T13:46:11.607Z,48.74
2023-04-19T13:48:39.488Z,49.70
2023-04-19T13:51:07.496Z,50.21
2023-04-19T13:53:34.887Z,50.21
2023-04-19T13:56:02.299Z,49.63
2023-04-19T13:58:48.605Z,48.77
2023-04-19T14:01:16.094Z,49.52
2023-04-19T14:03:43.973Z,50.26
2023-04-19T14:06:11.528Z,48.58
2023-04-19T14:08:38.868Z,49.23
2023-04-19T14:11:06.528Z,47.17
2023-04-19T14:13:33.883Z,49.27
2023-04-19T14:16:01.285Z,46.64
2023-04-19T14:18:29.270Z,47.79
2023-04-19T14:20:56.716Z,47.77
2023-04-19T14:23:24.234Z,46.64
2023-04-19T14:25:52.551Z,47.17
2023-04-19T14:28:20.395Z,46.18
2023-04-19T14:30:47.763Z,47.33
2023-04-19T14:33:15.500Z,46.48
2023-04-19T14:35:43.012Z,47.22
2023-04-19T14:38:11.193Z,47.60
2023-04-19T14:40:38.796Z,46.21
2023-04-19T14:43:06.138Z,45.94
2023-04-19T14:45:33.579Z,46.51
2023-04-19T14:48:01.404Z,47.56
2023-04-19T14:50:28.932Z,47.24
2023-04-19T14:52:56.670Z,46.85
2023-04-19T14:55:26.952Z,47.57
2023-04-19T14:57:54.801Z,48.70
2023-04-19T15:00:22.248Z,48.71
2023-04-19T15:02:49.983Z,47.40
2023-04-19T15:05:17.893Z,46.65
2023-04-19T15:07:45.646Z,47.64
2023-04-19T15:10:13.306Z,48.17
2023-04-19T15:12:41.256Z,48.94
2023-04-19T15:15:08.855Z,48.03
2023-04-19T15:17:37.325Z,48.05
2023-04-19T15:20:05.909Z,48.99
2023-04-19T15:22:33.903Z,48.33
2023-04-19T15:25:02.531Z,47.79
2023-04-19T15:27:31.233Z,47.90
2023-04-19T15:29:58.805Z,47.13
2023-04-19T15:32:27.466Z,47.24
2023-04-19T15:34:55.300Z,47.52
2023-04-19T15:37:22.757Z,47.14
2023-04-19T15:39:50.488Z,47.19
2023-04-19T15:42:17.868Z,47.44
2023-04-19T15:44:45.300Z,45.23
2023-04-19T15:47:13.047Z,45.18
2023-04-19T15:49:40.684Z,46.04
2023-04-19T15:52:08.689Z,46.30
2023-04-19T15:54:37.762Z,44.87
2023-04-19T15:57:05.147Z,44.69
2023-04-19T15:59:32.493Z,46.37
2023-04-19T16:02:00.319Z,45.15
2023-04-19T16:04:28.662Z,45.72
2023-04-19T16:06:56.443Z,46.03
2023-04-19T16:09:24.223Z,45.41
2023-04-19T16:11:51.948Z,45.72
2023-04-19T16:14:19.735Z,45.96
2023-04-19T16:16:47.744Z,46.82
2023-04-19T16:19:15.586Z,47.46
2023-04-19T16:21:43.104Z,47.62
2023-04-19T16:24:10.760Z,46.90
2023-04-19T16:26:38.541Z,46.23
2023-04-19T16:29:05.984Z,47.41
2023-04-19T16:31:34.329Z,46.06
2023-04-19T16:34:02.019Z,46.86
2023-04-19T16:36:29.593Z,45.93
2023-04-19T16:39:10.900Z,45.93
2023-04-19T16:41:53.655Z,46.90
2023-04-19T16:44:21.049Z,47.39
2023-04-19T16:46:49.481Z,46.88
2023-04-19T16:49:28.864Z,46.89
2023-04-19T16:51:56.776Z,47.46
2023-04-19T16:54:24.223Z,48.06
2023-04-19T16:56:51.606Z,47.28
2023-04-19T16:59:19.605Z,46.38
2023-04-19T17:01:58.365Z,46.97
2023-04-19T17:04:28.513Z,47.37
2023-04-19T17:06:56.489Z,48.41
2023-04-19T17:09:23.888Z,47.71
2023-04-19T17:11:55.053Z,47.66
2023-04-19T17:14:30.089Z,48.62
2023-04-19T17:16:58.373Z,49.39
2023-04-19T17:19:25.916Z,49.56
2023-04-19T17:21:53.688Z,50.95
2023-04-19T17:24:22.163Z,51.69
2023-04-19T17:26:50.169Z,52.01
2023-04-19T17:29:18.549Z,51.24
2023-04-19T17:31:47.103Z,51.44
2023-04-19T17:34:14.577Z,50.22
2023-04-19T17:39:28.255Z,52.12
2023-04-19T17:41:56.766Z,52.29
2023-04-19T17:44:25.664Z,52.88
2023-04-19T17:46:53.441Z,54.10
2023-04-19T17:49:22.308Z,54.87
2023-04-19T17:51:54.836Z,54.19
2023-04-19T17:54:23.770Z,53.42
2023-04-19T17:56:52.963Z,54.40
2023-04-19T17:59:21.857Z,55.18
2023-04-19T18:01:49.922Z,54.79
2023-04-19T18:04:22.558Z,55.68
2023-04-19T18:06:50.888Z,56.71
2023-04-19T18:09:19.361Z,54.62
2023-04-19T18:11:48.301Z,53.86
2023-04-19T18:14:17.067Z,55.27
2023-04-19T18:16:45.816Z,54.41
2023-04-19T18:19:14.321Z,55.00
2023-04-19T18:21:42.403Z,54.96
2023-04-19T18:24:11.556Z,56.08
2023-04-19T18:26:43.604Z,55.31
2023-04-19T18:29:13.481Z,56.14
2023-04-19T18:31:44.960Z,55.25
2023-04-19T18:34:19.999Z,55.30
2023-04-19T18:36:49.807Z,55.14
2023-04-19T18:39:18.981Z,55.66
2023-04-19T18:41:48.632Z,56.45
2023-04-19T18:46:54.305Z,55.07
2023-04-19T18:49:23.316Z,55.28
2023-04-19T18:51:53.686Z,55.62
2023-04-19T18:54:22.285Z,55.73
2023-04-19T18:57:19.012Z,55.26
2023-04-19T18:59:41.652Z,55.77
2023-04-19T19:02:11.117Z,56.16
2023-04-19T19:04:52.170Z,55.48
2023-04-19T19:10:03.551Z,57.16
2023-04-19T19:12:38.395Z,55.97
2023-04-19T19:15:08.561Z,56.01
2023-04-19T19:17:36.438Z,58.26
2023-04-19T19:20:07.004Z,57.91
2023-04-19T19:22:37.734Z,58.31
2023-04-19T19:25:10.397Z,57.42
2023-04-19T19:27:40.917Z,57.79
2023-04-19T19:30:12.393Z,57.93
2023-04-19T19:32:40.869Z,58.31
2023-04-19T19:35:10.167Z,58.59
2023-04-19T19:37:39.217Z,58.44
2023-04-19T19:40:10.991Z,58.03
2023-04-19T19:42:42.125Z,57.94
2023-04-19T19:45:13.693Z,56.60
2023-04-19T19:47:45.608Z,57.80
2023-04-19T19:52:48.124Z,57.63
2023-04-19T19:55:18.098Z,56.51
2023-04-19T20:00:42.734Z,57.83
2023-04-19T20:03:15.155Z,58.84
2023-04-19T20:05:46.985Z,58.87
2023-04-19T20:08:17.737Z,59.73
2023-04-19T20:10:47.412Z,59.39
2023-04-19T20:13:18.241Z,58.71
2023-04-19T20:15:47.923Z,59.09
2023-04-19T20:18:17.488Z,58.72
2023-04-19T20:20:47.072Z,59.34
2023-04-19T20:23:16.645Z,59.40
2023-04-19T20:25:45.979Z,58.29
2023-04-19T20:28:15.947Z,58.34
2023-04-19T20:30:45.546Z,59.63
2023-04-19T20:33:17.611Z,58.14
2023-04-19T20:35:47.284Z,58.91
2023-04-19T20:38:16.581Z,59.73
2023-04-19T20:40:46.397Z,58.16
2023-04-19T20:43:17.255Z,59.51
2023-04-19T20:45:46.001Z,59.97
2023-04-19T20:48:14.318Z,59.44
2023-04-19T20:50:42.727Z,58.66
2023-04-19T20:53:11.707Z,59.55
2023-04-19T20:55:40.068Z,59.56
2023-04-19T20:58:08.156Z,59.59
2023-04-19T21:00:35.967Z,60.72
2023-04-19T21:03:04.671Z,59.08
2023-04-19T21:05:33.592Z,58.97
2023-04-19T21:08:02.098Z,58.32
2023-04-19T21:10:31.309Z,59.63
2023-04-19T21:12:58.904Z,58.88
2023-04-19T21:15:26.676Z,59.60
2023-04-19T21:17:54.348Z,59.71
2023-04-19T21:20:21.989Z,60.27
2023-04-19T21:22:50.984Z,60.72
2023-04-19T21:25:24.203Z,60.79
2023-04-19T21:28:22.932Z,61.26
2023-04-19T21:30:52.040Z,61.95
2023-04-19T21:33:19.796Z,61.55
2023-04-19T21:35:47.181Z,61.30
2023-04-19T21:38:14.854Z,61.57
2023-04-19T21:40:42.240Z,62.18
2023-04-19T21:43:09.628Z,63.75
2023-04-19T21:45:37.240Z,63.29
2023-04-19T21:48:04.909Z,61.18
2023-04-19T21:50:32.491Z,61.24
2023-04-19T21:53:00.156Z,60.03
2023-04-19T21:55:27.536Z,60.18
2023-04-19T21:57:54.926Z,61.10
2023-04-19T22:00:24.214Z,60.85
2023-04-19T22:02:51.968Z,61.12
2023-04-19T22:05:19.487Z,61.27
2023-04-19T22:07:47.433Z,61.32
2023-04-19T22:10:15.038Z,61.19
2023-04-19T22:12:51.539Z,60.35
2023-04-19T22:15:26.931Z,60.07
2023-04-19T22:17:54.467Z,61.57
2023-04-19T22:20:21.909Z,61.27
2023-04-19T22:22:49.657Z,61.76
2023-04-19T22:25:17.093Z,61.13
2023-04-19T22:27:45.398Z,60.28
2023-04-19T22:30:13.155Z,61.01
2023-04-19T22:32:40.596Z,60.56
2023-04-19T22:35:08.492Z,60.38
2023-04-19T22:37:36.223Z,60.58
2023-04-19T22:40:06.137Z,59.75
2023-04-19T22:42:33.499Z,60.51
2023-04-19T22:45:01.181Z,59.64
2023-04-19T22:47:28.593Z,59.82
2023-04-19T22:49:56.090Z,60.49
2023-04-19T22:52:23.712Z,59.24
2023-04-19T22:54:51.082Z,60.70
2023-04-19T22:57:18.470Z,60.36
2023-04-19T22:59:46.138Z,59.04
2023-04-19T23:02:13.589Z,59.08
2023-04-19T23:04:45.139Z,57.98
2023-04-19T23:07:13.744Z,58.05
2023-04-19T23:09:41.667Z,58.35
2023-04-19T23:12:09.035Z,58.91
2023-04-19T23:14:38.988Z,59.49
2023-04-19T23:17:07.310Z,60.47
2023-04-19T23:19:36.687Z,60.78
2023-04-19T23:22:04.367Z,61.86
2023-04-19T23:24:36.966Z,61.84
2023-04-19T23:27:04.773Z,60.50
2023-04-19T23:29:32.244Z,62.08
2023-04-19T23:32:01.177Z,64.25
2023-04-19T23:34:28.861Z,64.07
2023-04-19T23:36:56.829Z,64.13
2023-04-19T23:39:24.324Z,62.88
2023-04-19T23:41:52.433Z,63.33
2023-04-19T23:44:19.798Z,63.14
2023-04-19T23:46:48.769Z,62.80
2023-04-19T23:49:17.080Z,61.50
2023-04-19T23:51:44.703Z,61.29
2023-04-19T23:54:12.437Z,62.13
2023-04-19T23:56:40.153Z,61.17
2023-04-19T23:59:07.639Z,61.19
